Lilly, Pennsylvania
Current Conditions -  °F | °C
As of 6:54 AM on Friday 21 Nov 2014 (Local Time) from KJST Reporting Station
Overcast Overcast  
Wind Chill:   Ceiling: 1600
Heat Index: 16°   Visibility: 10mi
Dew Point:   Wind: 16mph
Humidity: 74%   Direction: 280°W
Pressure: 30.2"   Gusts: 24mph
Location:  40.43°N, 78.62°W
Report Text: KJST 211154Z AUTO 28014G21KT 10SM OVC016 M09/M13 A3020 RMK AO2 SLP266 60000 T10891128 11078 21089 53033
Loading
Personal Weather Stations






























Interactive Weather Map New forecast layout! Learn more

10-Day Weather Forecast

Advertisements
Track Severe Weather on mobile